createdAt,value
2019-06-20T00:00:50.690Z,54.90
2019-06-20T00:03:17.185Z,55.00
2019-06-20T00:05:43.512Z,55.00
2019-06-20T00:08:10.332Z,55.00
2019-06-20T00:10:36.642Z,54.80
2019-06-20T00:13:03.670Z,54.90
2019-06-20T00:15:30.143Z,55.10
2019-06-20T00:17:57.016Z,55.10
2019-06-20T00:20:26.204Z,54.70
2019-06-20T00:22:52.603Z,55.10
2019-06-20T00:25:18.927Z,55.10
2019-06-20T00:27:45.332Z,55.20
2019-06-20T00:30:11.632Z,55.20
2019-06-20T00:32:38.396Z,55.20
2019-06-20T00:35:05.738Z,55.20
2019-06-20T00:37:32.426Z,55.10
2019-06-20T00:39:58.960Z,55.20
2019-06-20T00:42:25.664Z,55.10
2019-06-20T00:44:52.512Z,55.20
2019-06-20T00:47:19.061Z,55.50
2019-06-20T00:49:45.797Z,55.20
2019-06-20T00:52:12.580Z,55.40
2019-06-20T00:54:39.266Z,55.10
2019-06-20T00:57:06.003Z,54.90
2019-06-20T00:59:32.341Z,54.90
2019-06-20T01:01:58.760Z,54.80
2019-06-20T01:04:25.099Z,54.80
2019-06-20T01:06:51.561Z,55.00
2019-06-20T01:09:17.988Z,55.00
2019-06-20T01:11:44.311Z,55.00
2019-06-20T01:14:10.935Z,54.80
2019-06-20T01:16:37.387Z,54.80
2019-06-20T01:19:03.844Z,54.80
2019-06-20T01:21:30.153Z,54.80
2019-06-20T01:23:56.883Z,54.90
2019-06-20T01:26:23.164Z,54.90
2019-06-20T01:28:49.496Z,54.60
2019-06-20T01:31:15.917Z,54.80
2019-06-20T01:33:42.315Z,54.60
2019-06-20T01:36:08.871Z,54.80
2019-06-20T01:38:35.172Z,54.90
2019-06-20T01:41:05.685Z,55.00
2019-06-20T01:43:29.819Z,54.80
2019-06-20T01:45:56.124Z,55.10
2019-06-20T01:48:22.454Z,55.20
2019-06-20T01:50:48.867Z,55.20
2019-06-20T01:53:15.197Z,55.30
2019-06-20T01:55:41.976Z,55.30
2019-06-20T01:58:08.746Z,55.20
2019-06-20T02:00:46.675Z,55.90
2019-06-20T02:03:13.481Z,55.30
2019-06-20T02:05:39.802Z,55.30
2019-06-20T02:08:06.210Z,55.40
2019-06-20T02:10:32.725Z,55.20
2019-06-20T02:12:59.024Z,55.20
2019-06-20T02:15:25.329Z,55.50
2019-06-20T02:17:51.751Z,55.10
2019-06-20T02:20:30.357Z,55.40
2019-06-20T02:22:56.791Z,55.60
2019-06-20T02:25:23.225Z,55.30
2019-06-20T02:27:49.663Z,55.70
2019-06-20T02:30:16.009Z,55.60
2019-06-20T02:32:42.308Z,55.80
2019-06-20T02:35:08.780Z,55.60
2019-06-20T02:37:35.211Z,55.70
2019-06-20T02:40:02.230Z,55.60
2019-06-20T02:42:28.673Z,55.80
2019-06-20T02:44:55.209Z,55.60
2019-06-20T02:47:21.532Z,55.60
2019-06-20T02:49:47.835Z,55.80
2019-06-20T02:52:14.145Z,55.80
2019-06-20T02:54:40.481Z,55.80
2019-06-20T02:57:07.042Z,55.80
2019-06-20T02:59:33.388Z,55.90
2019-06-20T03:01:59.702Z,55.90
2019-06-20T03:04:26.160Z,56.20
2019-06-20T03:06:52.480Z,55.70
2019-06-20T03:09:18.801Z,56.50
2019-06-20T03:11:52.094Z,57.60
2019-06-20T03:14:20.953Z,58.30
2019-06-20T03:16:53.871Z,58.00
2019-06-20T03:19:20.297Z,57.80
2019-06-20T03:21:46.836Z,57.20
2019-06-20T03:24:13.130Z,57.10
2019-06-20T03:26:40.231Z,56.90
2019-06-20T03:29:06.537Z,56.70
2019-06-20T03:31:32.918Z,56.50
2019-06-20T03:33:59.256Z,56.40
2019-06-20T03:36:25.580Z,56.30
2019-06-20T03:38:51.896Z,56.10
2019-06-20T03:41:18.890Z,56.10
2019-06-20T03:43:45.394Z,55.90
2019-06-20T03:46:11.695Z,55.90
2019-06-20T03:48:38.187Z,56.00
2019-06-20T03:51:04.614Z,55.90
2019-06-20T03:53:30.912Z,55.80
2019-06-20T03:55:57.233Z,55.70
2019-06-20T03:58:23.647Z,55.70
2019-06-20T04:00:49.978Z,55.60
2019-06-20T04:03:17.175Z,55.70
2019-06-20T04:05:43.561Z,55.80
2019-06-20T04:08:10.100Z,55.80
2019-06-20T04:10:36.401Z,55.80
2019-06-20T04:13:03.589Z,55.80
2019-06-20T04:15:30.318Z,55.80
2019-06-20T04:17:56.591Z,55.80
2019-06-20T04:20:23.487Z,55.60
2019-06-20T04:22:49.784Z,55.60
2019-06-20T04:25:16.273Z,55.50
2019-06-20T04:27:42.698Z,55.40
2019-06-20T04:30:09.031Z,55.20
2019-06-20T04:32:35.359Z,55.10
2019-06-20T04:35:03.507Z,55.20
2019-06-20T04:37:29.873Z,55.40
2019-06-20T04:39:56.169Z,55.40
2019-06-20T04:42:22.777Z,55.40
2019-06-20T04:44:50.814Z,56.10
2019-06-20T04:47:17.656Z,55.50
2019-06-20T04:49:43.980Z,55.10
2019-06-20T04:52:12.374Z,54.80
2019-06-20T04:54:38.654Z,54.60
2019-06-20T04:57:04.971Z,54.70
2019-06-20T04:59:31.271Z,54.60
2019-06-20T05:01:57.715Z,54.60
2019-06-20T05:04:24.004Z,54.40
2019-06-20T05:06:54.121Z,54.40
2019-06-20T05:09:20.427Z,54.30
2019-06-20T05:11:46.932Z,54.30
2019-06-20T05:14:13.235Z,54.30
2019-06-20T05:16:39.658Z,54.20
2019-06-20T05:19:05.971Z,54.20
2019-06-20T05:21:32.395Z,54.20
2019-06-20T05:23:58.741Z,54.30
2019-06-20T05:26:25.155Z,54.20
2019-06-20T05:28:51.580Z,54.10
2019-06-20T05:31:17.912Z,54.00
2019-06-20T05:33:47.167Z,54.00
2019-06-20T05:36:13.467Z,54.00
2019-06-20T05:38:39.895Z,54.00
2019-06-20T05:41:06.212Z,53.90
2019-06-20T05:43:32.540Z,54.00
2019-06-20T05:46:08.896Z,54.00
2019-06-20T05:48:26.948Z,53.60
2019-06-20T05:50:53.367Z,53.80
2019-06-20T05:53:19.784Z,53.80
2019-06-20T05:55:46.224Z,53.80
2019-06-20T05:58:12.645Z,53.80
2019-06-20T06:00:39.019Z,53.80
2019-06-20T06:03:07.128Z,53.80
2019-06-20T06:05:34.018Z,53.70
2019-06-20T06:08:00.592Z,53.60
2019-06-20T06:10:27.115Z,53.60
2019-06-20T06:12:53.557Z,53.60
2019-06-20T06:15:20.021Z,53.50
2019-06-20T06:17:46.318Z,53.50
2019-06-20T06:20:12.812Z,53.60
2019-06-20T06:22:39.112Z,53.50
2019-06-20T06:25:05.550Z,53.50
2019-06-20T06:27:32.007Z,53.50
2019-06-20T06:29:58.312Z,53.50
2019-06-20T06:32:39.222Z,53.40
2019-06-20T06:34:53.028Z,53.40
2019-06-20T06:37:19.544Z,54.00
2019-06-20T06:39:46.141Z,53.40
2019-06-20T06:42:12.424Z,53.30
2019-06-20T06:44:38.756Z,53.30
2019-06-20T06:47:05.277Z,53.30
2019-06-20T06:49:31.576Z,53.20
2019-06-20T06:51:58.035Z,53.20
2019-06-20T06:54:24.637Z,53.10
2019-06-20T06:56:51.068Z,53.20
2019-06-20T06:59:19.817Z,53.10
2019-06-20T07:01:46.130Z,53.00
2019-06-20T07:04:12.527Z,53.00
2019-06-20T07:06:38.840Z,53.00
2019-06-20T07:09:08.734Z,53.00
2019-06-20T07:11:35.701Z,53.00
2019-06-20T07:14:02.399Z,52.90
2019-06-20T07:16:29.230Z,52.90
2019-06-20T07:18:55.950Z,52.90
2019-06-20T07:21:22.317Z,52.80
2019-06-20T07:23:48.824Z,52.80
2019-06-20T07:26:15.331Z,52.70
2019-06-20T07:28:45.316Z,52.80
2019-06-20T07:31:11.617Z,52.80
2019-06-20T07:33:38.078Z,52.70
2019-06-20T07:36:05.534Z,52.80
2019-06-20T07:38:31.840Z,52.80
2019-06-20T07:40:58.207Z,52.80
2019-06-20T07:43:24.607Z,52.80
2019-06-20T07:46:01.947Z,52.60
2019-06-20T07:48:19.390Z,52.60
2019-06-20T07:50:45.908Z,52.70
2019-06-20T07:53:12.456Z,52.60
2019-06-20T07:55:38.815Z,52.60
2019-06-20T07:58:05.433Z,52.50
2019-06-20T08:00:34.772Z,52.50
2019-06-20T08:03:01.306Z,52.40
2019-06-20T08:05:27.969Z,52.30
2019-06-20T08:07:54.279Z,52.40
2019-06-20T08:10:20.715Z,52.20
2019-06-20T08:12:47.413Z,52.30
2019-06-20T08:15:18.768Z,52.30
2019-06-20T08:17:45.186Z,52.80
2019-06-20T08:20:13.706Z,52.30
2019-06-20T08:22:40.031Z,52.20
2019-06-20T08:25:06.860Z,52.10
2019-06-20T08:27:47.315Z,51.90
2019-06-20T08:30:13.849Z,51.90
2019-06-20T08:32:40.158Z,51.90
2019-06-20T08:35:06.670Z,51.90
2019-06-20T08:37:32.972Z,51.70
2019-06-20T08:40:00.003Z,52.20
2019-06-20T08:42:26.534Z,51.50
2019-06-20T08:44:53.053Z,51.50
2019-06-20T08:47:19.372Z,51.30
2019-06-20T08:49:45.788Z,51.30
2019-06-20T08:52:12.209Z,51.30
2019-06-20T08:54:39.607Z,51.50
2019-06-20T08:57:06.064Z,51.50
2019-06-20T08:59:32.481Z,51.40
2019-06-20T09:04:29.391Z,51.30
2019-06-20T09:06:57.518Z,51.30
2019-06-20T09:09:24.216Z,51.20
2019-06-20T09:11:50.546Z,51.00
2019-06-20T09:14:16.969Z,51.00
2019-06-20T09:16:43.539Z,50.80
2019-06-20T09:19:10.063Z,50.90
2019-06-20T09:21:36.380Z,51.00
2019-06-20T09:24:04.120Z,51.60
2019-06-20T09:26:30.741Z,50.80
2019-06-20T09:28:57.218Z,50.80
2019-06-20T09:31:23.744Z,50.70
2019-06-20T09:33:52.154Z,50.90
2019-06-20T09:36:18.271Z,50.70
2019-06-20T09:38:44.576Z,50.70
2019-06-20T09:41:11.843Z,50.80
2019-06-20T09:43:38.368Z,50.80
2019-06-20T09:46:04.835Z,50.80
2019-06-20T09:48:31.355Z,46.30
2019-06-20T09:50:58.629Z,46.10
2019-06-20T09:53:24.996Z,45.60
2019-06-20T09:55:51.776Z,46.90
2019-06-20T09:58:18.543Z,44.80
2019-06-20T10:00:49.253Z,44.70
2019-06-20T10:03:17.359Z,45.10
2019-06-20T10:05:46.011Z,45.40
2019-06-20T10:08:21.580Z,45.20
2019-06-20T10:10:48.912Z,44.20
2019-06-20T10:13:15.114Z,44.10
2019-06-20T10:15:41.720Z,44.10
2019-06-20T10:18:08.178Z,44.50
2019-06-20T10:20:34.888Z,44.90
2019-06-20T10:23:01.170Z,44.90
2019-06-20T10:25:27.463Z,45.80
2019-06-20T10:27:54.243Z,46.20
2019-06-20T10:30:22.972Z,45.20
2019-06-20T10:32:50.876Z,44.90
2019-06-20T10:35:18.440Z,45.20
2019-06-20T10:37:45.603Z,45.40
2019-06-20T10:40:13.622Z,45.20
2019-06-20T10:42:40.036Z,46.00
2019-06-20T10:45:06.694Z,46.80
2019-06-20T10:47:36.090Z,47.30
2019-06-20T10:50:02.906Z,47.40
2019-06-20T10:52:29.308Z,47.30
2019-06-20T10:54:55.854Z,46.90
2019-06-20T10:57:22.279Z,47.30
2019-06-20T10:59:50.891Z,47.70
2019-06-20T11:02:17.666Z,47.90
2019-06-20T11:04:44.096Z,48.20
2019-06-20T11:07:10.739Z,47.70
2019-06-20T11:09:37.210Z,47.50
2019-06-20T11:12:03.555Z,46.90
2019-06-20T11:14:30.457Z,46.60
2019-06-20T11:16:57.073Z,46.80
2019-06-20T11:19:23.406Z,46.60
2019-06-20T11:21:49.733Z,46.10
2019-06-20T11:24:16.182Z,46.30
2019-06-20T11:26:43.077Z,45.90
2019-06-20T11:29:09.562Z,45.90
2019-06-20T11:31:37.499Z,45.70
2019-06-20T11:34:03.995Z,45.60
2019-06-20T11:36:30.308Z,45.60
2019-06-20T11:38:56.716Z,45.70
2019-06-20T11:41:23.130Z,45.50
2019-06-20T11:43:54.945Z,45.60
2019-06-20T11:46:23.515Z,45.50
2019-06-20T11:48:50.400Z,45.20
2019-06-20T11:51:16.823Z,45.30
2019-06-20T11:53:43.136Z,45.40
2019-06-20T11:56:10.161Z,45.60
2019-06-20T11:58:36.542Z,45.50
2019-06-20T12:01:04.140Z,45.50
2019-06-20T12:03:30.895Z,45.60
2019-06-20T12:05:57.279Z,45.80
2019-06-20T12:08:23.716Z,45.90
2019-06-20T12:10:50.037Z,45.80
2019-06-20T12:13:16.574Z,46.10
2019-06-20T12:15:44.401Z,45.60
2019-06-20T12:18:10.776Z,44.90
2019-06-20T12:20:37.868Z,44.90
2019-06-20T12:23:04.717Z,45.10
2019-06-20T12:25:31.024Z,45.70
2019-06-20T12:27:57.452Z,46.10
2019-06-20T12:30:24.471Z,46.20
2019-06-20T12:32:51.024Z,46.40
2019-06-20T12:35:19.437Z,46.40
2019-06-20T12:37:46.049Z,46.30
2019-06-20T12:40:13.301Z,46.40
2019-06-20T12:42:41.475Z,46.60
2019-06-20T12:45:08.689Z,46.60
2019-06-20T12:47:35.108Z,46.60
2019-06-20T12:50:03.780Z,46.70
2019-06-20T12:52:30.074Z,46.70
2019-06-20T12:54:56.571Z,46.60
2019-06-20T12:57:23.272Z,46.70
2019-06-20T12:59:49.567Z,46.70
2019-06-20T13:02:15.881Z,47.00
2019-06-20T13:04:42.201Z,46.90
2019-06-20T13:07:08.905Z,46.90
2019-06-20T13:09:35.383Z,47.20
2019-06-20T13:12:01.887Z,47.00
2019-06-20T13:14:28.192Z,46.90
2019-06-20T13:16:54.742Z,46.90
2019-06-20T13:19:21.113Z,47.00
2019-06-20T13:21:48.609Z,46.80
2019-06-20T13:24:15.537Z,47.00
2019-06-20T13:26:42.510Z,47.10
2019-06-20T13:29:09.407Z,47.00
2019-06-20T13:31:51.464Z,46.80
2019-06-20T13:34:04.082Z,46.70
2019-06-20T13:36:30.713Z,46.70
2019-06-20T13:38:58.941Z,46.80
2019-06-20T13:41:26.776Z,43.00
2019-06-20T13:43:53.356Z,42.80
2019-06-20T13:46:19.783Z,42.80
2019-06-20T13:48:47.436Z,42.80
2019-06-20T13:51:13.999Z,43.20
2019-06-20T13:53:41.182Z,43.30
2019-06-20T13:56:08.548Z,43.20
2019-06-20T13:58:34.983Z,43.20
2019-06-20T14:01:01.609Z,43.50
2019-06-20T14:03:27.926Z,43.70
2019-06-20T14:05:54.469Z,43.90
2019-06-20T14:08:20.994Z,44.20
2019-06-20T14:10:47.663Z,43.90
2019-06-20T14:13:19.297Z,44.10
2019-06-20T14:15:43.186Z,44.30
2019-06-20T14:18:10.762Z,44.40
2019-06-20T14:20:37.054Z,44.50
2019-06-20T14:23:04.596Z,44.50
2019-06-20T14:25:34.154Z,44.40
2019-06-20T14:27:59.243Z,44.50
2019-06-20T14:30:26.863Z,44.40
2019-06-20T14:32:54.010Z,44.20
2019-06-20T14:35:20.884Z,44.40
2019-06-20T14:37:47.821Z,44.20
2019-06-20T14:40:15.547Z,44.10
2019-06-20T14:42:42.972Z,44.00
2019-06-20T14:45:10.312Z,44.20
2019-06-20T14:47:36.859Z,44.40
2019-06-20T14:50:07.382Z,44.40
2019-06-20T14:52:33.819Z,44.30
2019-06-20T14:55:00.245Z,43.60
2019-06-20T14:57:26.562Z,43.90
2019-06-20T14:59:54.341Z,44.00
2019-06-20T15:02:20.780Z,44.20
2019-06-20T15:04:47.866Z,44.10
2019-06-20T15:07:14.421Z,44.10
2019-06-20T15:09:40.846Z,44.20
2019-06-20T15:12:07.382Z,43.80
2019-06-20T15:14:33.693Z,44.10
2019-06-20T15:16:59.998Z,44.10
2019-06-20T15:19:26.303Z,44.60
2019-06-20T15:21:54.163Z,44.60
2019-06-20T15:24:20.687Z,44.70
2019-06-20T15:26:47.624Z,45.00
2019-06-20T15:29:15.550Z,45.10
2019-06-20T15:31:43.786Z,45.10
2019-06-20T15:34:09.974Z,44.70
2019-06-20T15:36:36.292Z,45.20
2019-06-20T15:39:05.914Z,44.60
2019-06-20T15:41:32.216Z,44.60
2019-06-20T15:43:58.531Z,44.60
2019-06-20T15:46:25.036Z,44.70
2019-06-20T15:48:51.422Z,44.70
2019-06-20T15:51:17.676Z,44.70
2019-06-20T15:53:44.068Z,44.80
2019-06-20T15:56:10.376Z,44.80
2019-06-20T15:58:36.684Z,44.90
2019-06-20T16:01:03.153Z,44.90
2019-06-20T16:03:29.459Z,44.90
2019-06-20T16:05:55.768Z,44.90
2019-06-20T16:08:22.100Z,44.90
2019-06-20T16:10:48.512Z,44.90
2019-06-20T16:13:14.850Z,44.90
2019-06-20T16:15:41.139Z,44.90
2019-06-20T16:18:16.030Z,44.90
2019-06-20T16:20:42.416Z,43.10
2019-06-20T16:23:08.731Z,43.70
2019-06-20T16:25:35.180Z,44.50
2019-06-20T16:28:01.587Z,44.60
2019-06-20T16:30:27.972Z,44.60
2019-06-20T16:32:54.795Z,44.60
2019-06-20T16:35:21.194Z,44.80
2019-06-20T16:37:47.519Z,44.80
2019-06-20T16:40:13.949Z,45.10
2019-06-20T16:42:40.359Z,45.10
2019-06-20T16:45:07.501Z,45.00
2019-06-20T16:47:33.824Z,45.40
2019-06-20T16:50:00.299Z,46.70
2019-06-20T16:52:26.924Z,47.40
2019-06-20T16:54:53.273Z,47.20
2019-06-20T16:57:22.760Z,47.00
2019-06-20T16:59:52.433Z,46.90
2019-06-20T17:02:18.991Z,46.80
2019-06-20T17:04:45.400Z,46.80
2019-06-20T17:07:11.861Z,46.60
2019-06-20T17:09:38.167Z,46.70
2019-06-20T17:12:04.583Z,46.70
2019-06-20T17:14:30.926Z,46.60
2019-06-20T17:16:57.430Z,46.60
2019-06-20T17:19:23.847Z,46.50
2019-06-20T17:21:50.328Z,46.70
2019-06-20T17:24:16.796Z,46.70
2019-06-20T17:26:43.307Z,46.80
2019-06-20T17:29:12.177Z,46.80
2019-06-20T17:31:38.636Z,46.80
2019-06-20T17:34:05.034Z,47.00
2019-06-20T17:36:31.337Z,47.00
2019-06-20T17:38:57.819Z,47.80
2019-06-20T17:41:24.240Z,47.30
2019-06-20T17:43:50.897Z,47.20
2019-06-20T17:46:22.820Z,47.50
2019-06-20T17:48:56.257Z,48.80
2019-06-20T17:51:24.175Z,47.50
2019-06-20T17:53:50.685Z,47.30
2019-06-20T17:56:18.110Z,47.50
2019-06-20T17:58:44.596Z,47.60
2019-06-20T18:01:10.992Z,47.80
2019-06-20T18:03:37.482Z,48.00
2019-06-20T18:06:03.907Z,48.50
2019-06-20T18:08:30.230Z,48.30
2019-06-20T18:10:56.696Z,49.10
2019-06-20T18:13:23.005Z,49.20
2019-06-20T18:15:49.413Z,48.80
2019-06-20T18:18:16.075Z,49.00
2019-06-20T18:20:43.492Z,49.00
2019-06-20T18:23:09.922Z,49.00
2019-06-20T18:25:36.242Z,49.10
2019-06-20T18:28:02.770Z,49.10
2019-06-20T18:30:43.500Z,49.20
2019-06-20T18:33:09.923Z,49.00
2019-06-20T18:35:36.430Z,49.20
2019-06-20T18:38:03.539Z,48.90
2019-06-20T18:40:31.453Z,48.90
2019-06-20T18:42:58.239Z,48.40
2019-06-20T18:45:25.059Z,49.50
2019-06-20T18:47:52.591Z,49.30
2019-06-20T18:50:19.173Z,49.80
2019-06-20T18:52:52.208Z,50.20
2019-06-20T18:55:13.831Z,50.50
2019-06-20T18:57:40.150Z,50.60
2019-06-20T19:00:07.951Z,50.80
2019-06-20T19:02:34.507Z,51.10
2019-06-20T19:05:00.952Z,51.10
2019-06-20T19:07:27.265Z,50.60
2019-06-20T19:09:53.674Z,50.30
2019-06-20T19:12:20.005Z,50.20
2019-06-20T19:14:46.516Z,50.00
2019-06-20T19:17:16.589Z,50.00
2019-06-20T19:19:43.239Z,50.00
2019-06-20T19:22:09.550Z,50.00
2019-06-20T19:24:35.858Z,50.00
2019-06-20T19:27:02.189Z,50.00
2019-06-20T19:29:30.473Z,50.00
2019-06-20T19:31:56.887Z,50.00
2019-06-20T19:34:24.365Z,49.90
2019-06-20T19:36:51.069Z,49.90
2019-06-20T19:39:17.562Z,49.70
2019-06-20T19:41:44.033Z,49.70
2019-06-20T19:44:11.248Z,49.60
2019-06-20T19:46:37.769Z,49.50
2019-06-20T19:49:04.193Z,49.50
2019-06-20T19:51:32.372Z,49.40
2019-06-20T19:53:58.923Z,49.50
2019-06-20T19:56:25.215Z,49.20
2019-06-20T19:58:51.589Z,49.30
2019-06-20T20:01:17.967Z,49.20
2019-06-20T20:03:44.372Z,49.20
2019-06-20T20:06:10.834Z,49.20
2019-06-20T20:08:37.141Z,49.20
2019-06-20T20:11:03.459Z,49.80
2019-06-20T20:13:29.997Z,49.30
2019-06-20T20:15:56.332Z,49.30
2019-06-20T20:18:22.686Z,49.20
2019-06-20T20:20:48.964Z,49.30
2019-06-20T20:23:15.284Z,49.40
2019-06-20T20:25:41.689Z,49.40
2019-06-20T20:28:08.007Z,49.50
2019-06-20T20:30:34.407Z,49.40
2019-06-20T20:33:02.132Z,49.50
2019-06-20T20:35:35.302Z,49.60
2019-06-20T20:37:58.780Z,49.40
2019-06-20T20:40:25.119Z,49.60
2019-06-20T20:42:51.440Z,49.60
2019-06-20T20:45:17.954Z,49.80
2019-06-20T20:47:44.296Z,50.00
2019-06-20T20:50:11.605Z,50.00
2019-06-20T20:52:37.899Z,50.00
2019-06-20T20:55:05.628Z,50.20
2019-06-20T20:57:31.928Z,50.20
2019-06-20T20:59:58.255Z,50.20
2019-06-20T21:02:24.668Z,50.10
2019-06-20T21:04:51.072Z,50.20
2019-06-20T21:07:17.395Z,50.30
2019-06-20T21:09:43.699Z,50.30
2019-06-20T21:12:10.035Z,50.20
2019-06-20T21:14:36.346Z,50.30
2019-06-20T21:17:02.647Z,50.30
2019-06-20T21:19:29.236Z,50.50
2019-06-20T21:21:55.503Z,50.70
2019-06-20T21:24:21.827Z,50.80
2019-06-20T21:26:49.943Z,50.40
2019-06-20T21:29:16.944Z,50.40
2019-06-20T21:31:43.311Z,50.80
2019-06-20T21:34:09.627Z,50.90
2019-06-20T21:36:35.962Z,50.90
2019-06-20T21:39:04.770Z,50.90
2019-06-20T21:41:31.202Z,50.90
2019-06-20T21:43:57.614Z,50.80
2019-06-20T21:46:24.487Z,50.90
2019-06-20T21:48:50.935Z,51.00
2019-06-20T21:51:17.474Z,50.90
2019-06-20T21:53:43.774Z,50.90
2019-06-20T21:56:10.298Z,51.00
2019-06-20T21:58:36.603Z,51.00
2019-06-20T22:01:03.202Z,50.80
2019-06-20T22:03:29.708Z,50.90
2019-06-20T22:05:56.007Z,51.00
2019-06-20T22:08:22.430Z,51.20
2019-06-20T22:10:48.769Z,51.00
2019-06-20T22:13:15.288Z,51.00
2019-06-20T22:15:41.597Z,51.00
2019-06-20T22:18:07.895Z,51.10
2019-06-20T22:20:34.227Z,51.20
2019-06-20T22:23:00.581Z,51.40
2019-06-20T22:25:26.992Z,52.00
2019-06-20T22:27:53.648Z,51.50
2019-06-20T22:30:43.597Z,51.50
2019-06-20T22:33:09.915Z,51.60
2019-06-20T22:35:36.439Z,51.40
2019-06-20T22:38:03.006Z,51.80
2019-06-20T22:40:29.539Z,51.80
2019-06-20T22:42:56.402Z,51.60
2019-06-20T22:45:22.796Z,51.90
2019-06-20T22:47:49.126Z,52.10
2019-06-20T22:50:15.424Z,51.90
2019-06-20T22:52:42.064Z,52.10
2019-06-20T22:55:08.463Z,52.30
2019-06-20T22:57:34.767Z,52.60
2019-06-20T23:00:01.602Z,52.70
2019-06-20T23:02:27.892Z,52.70
2019-06-20T23:04:54.202Z,52.80
2019-06-20T23:07:20.515Z,52.70
2019-06-20T23:09:47.028Z,52.80
2019-06-20T23:12:13.359Z,52.70
2019-06-20T23:14:39.655Z,52.70
2019-06-20T23:17:05.959Z,52.70
2019-06-20T23:19:32.286Z,52.80
2019-06-20T23:21:58.588Z,52.70
2019-06-20T23:24:24.924Z,52.80
2019-06-20T23:26:51.356Z,53.10
2019-06-20T23:29:23.548Z,53.20
2019-06-20T23:31:52.616Z,53.20
2019-06-20T23:34:19.043Z,53.20
2019-06-20T23:36:45.380Z,52.90
2019-06-20T23:39:11.672Z,52.80
2019-06-20T23:41:38.192Z,53.00
2019-06-20T23:44:04.826Z,52.90
2019-06-20T23:46:31.224Z,53.20
2019-06-20T23:48:57.671Z,53.50
2019-06-20T23:51:25.902Z,53.50
2019-06-20T23:53:52.229Z,53.50
2019-06-20T23:56:19.447Z,53.20
2019-06-20T23:58:45.874Z,53.10
